createdAt,value
2018-05-14T00:00:00.222Z,12.10
2018-05-14T00:02:27.920Z,13.63
2018-05-14T00:04:56.164Z,5.63
2018-05-14T00:07:23.659Z,4.70
2018-05-14T00:09:52.193Z,3.47
2018-05-14T00:12:19.689Z,4.87
2018-05-14T00:14:47.987Z,4.23
2018-05-14T00:17:16.288Z,6.33
2018-05-14T00:19:43.816Z,3.60
2018-05-14T00:22:12.095Z,5.23
2018-05-14T00:24:40.347Z,5.20
2018-05-14T00:27:09.340Z,7.73
2018-05-14T00:29:36.920Z,4.83
2018-05-14T00:32:05.164Z,8.23
2018-05-14T00:34:32.639Z,5.30
2018-05-14T00:37:00.131Z,5.90
2018-05-14T00:39:27.672Z,3.73
2018-05-14T00:41:55.933Z,6.97
2018-05-14T00:44:23.652Z,9.90
2018-05-14T00:46:51.163Z,4.67
2018-05-14T00:49:19.508Z,6.73
2018-05-14T00:51:47.274Z,5.17
2018-05-14T00:54:15.854Z,6.67
2018-05-14T00:56:44.078Z,4.57
2018-05-14T00:59:13.522Z,6.23
2018-05-14T01:01:40.996Z,6.27
2018-05-14T01:04:08.483Z,5.23
2018-05-14T01:06:36.799Z,4.37
2018-05-14T01:09:04.224Z,4.23
2018-05-14T01:11:32.579Z,5.33
2018-05-14T01:14:00.300Z,6.57
2018-05-14T01:16:28.071Z,5.37
2018-05-14T01:18:55.927Z,5.47
2018-05-14T01:21:23.692Z,6.13
2018-05-14T01:23:51.163Z,5.23
2018-05-14T01:26:18.636Z,6.47
2018-05-14T01:28:46.746Z,6.87
2018-05-14T01:31:14.240Z,4.70
2018-05-14T01:33:41.732Z,10.00
2018-05-14T01:36:09.213Z,6.80
2018-05-14T01:38:37.732Z,4.77
2018-05-14T01:41:05.435Z,6.47
2018-05-14T01:43:34.415Z,4.07
2018-05-14T01:46:01.916Z,4.10
2018-05-14T01:48:30.159Z,8.40
2018-05-14T01:50:59.190Z,4.40
2018-05-14T01:53:27.416Z,4.00
2018-05-14T01:55:54.891Z,10.43
2018-05-14T01:58:22.460Z,5.23
2018-05-14T02:00:50.706Z,7.20
2018-05-14T02:03:18.205Z,5.77
2018-05-14T02:05:46.452Z,7.00
2018-05-14T02:08:13.931Z,4.93
2018-05-14T02:10:42.187Z,7.73
2018-05-14T02:13:10.288Z,4.73
2018-05-14T02:15:38.079Z,4.20
2018-05-14T02:18:05.596Z,8.33
2018-05-14T02:20:34.121Z,9.93
2018-05-14T02:23:01.624Z,11.10
2018-05-14T02:25:29.823Z,7.70
2018-05-14T02:27:58.335Z,4.80
2018-05-14T02:30:26.097Z,5.90
2018-05-14T02:32:53.616Z,9.37
2018-05-14T02:35:22.135Z,6.97
2018-05-14T02:37:49.900Z,6.80
2018-05-14T02:40:17.616Z,8.50
2018-05-14T02:42:45.160Z,7.20
2018-05-14T02:45:12.741Z,6.27
2018-05-14T02:47:41.000Z,6.23
2018-05-14T02:50:08.473Z,4.77
2018-05-14T02:52:36.996Z,8.20
2018-05-14T02:55:04.760Z,7.07
2018-05-14T02:57:32.241Z,7.80
2018-05-14T02:59:59.737Z,7.90
2018-05-14T03:02:28.260Z,8.53
2018-05-14T03:04:56.078Z,6.70
2018-05-14T03:07:24.632Z,6.30
2018-05-14T03:09:52.596Z,6.03
2018-05-14T03:12:21.628Z,7.57
2018-05-14T03:14:49.878Z,7.27
2018-05-14T03:17:17.383Z,11.73
2018-05-14T03:19:44.859Z,12.07
2018-05-14T03:22:12.619Z,6.30
2018-05-14T03:24:40.384Z,8.97
2018-05-14T03:27:07.870Z,4.67
2018-05-14T03:29:35.704Z,4.60
2018-05-14T03:32:03.187Z,8.73
2018-05-14T03:34:30.660Z,5.80
2018-05-14T03:36:58.157Z,10.57
2018-05-14T03:39:25.632Z,9.93
2018-05-14T03:41:53.152Z,12.67
2018-05-14T03:44:21.399Z,17.30
2018-05-14T03:46:48.883Z,7.53
2018-05-14T03:49:17.163Z,11.10
2018-05-14T03:51:45.432Z,9.00
2018-05-14T03:54:13.813Z,10.80
2018-05-14T03:56:42.064Z,11.27
2018-05-14T03:59:22.131Z,8.30
2018-05-14T04:15:18.652Z,6.30
2018-05-14T04:17:46.171Z,12.33
2018-05-14T04:20:13.869Z,10.80
2018-05-14T04:22:41.368Z,6.20
2018-05-14T04:25:08.849Z,11.53
2018-05-14T04:27:36.340Z,7.53
2018-05-14T04:30:04.039Z,5.23
2018-05-14T04:32:31.539Z,6.80
2018-05-14T04:34:59.016Z,4.93
2018-05-14T04:37:26.742Z,7.70
2018-05-14T04:39:54.260Z,7.17
2018-05-14T04:42:22.780Z,8.43
2018-05-14T04:44:50.438Z,7.10
2018-05-14T04:47:17.924Z,6.60
2018-05-14T04:49:45.401Z,5.57
2018-05-14T04:52:12.897Z,6.40
2018-05-14T04:54:40.676Z,8.73
2018-05-14T04:57:08.168Z,9.00
2018-05-14T04:59:35.896Z,5.63
2018-05-14T05:02:03.390Z,6.47
2018-05-14T05:04:30.969Z,6.90
2018-05-14T05:06:59.224Z,10.87
2018-05-14T05:09:26.716Z,10.30
2018-05-14T05:11:54.955Z,9.67
2018-05-14T05:14:22.452Z,11.73
2018-05-14T05:16:50.960Z,13.17
2018-05-14T05:19:18.724Z,10.97
2018-05-14T05:21:46.244Z,8.90
2018-05-14T05:24:14.489Z,10.30
2018-05-14T05:26:43.039Z,7.33
2018-05-14T05:29:10.519Z,5.70
2018-05-14T05:31:38.075Z,6.00
2018-05-14T05:34:05.552Z,9.03
2018-05-14T05:36:33.811Z,4.30
2018-05-14T05:39:01.287Z,12.03
2018-05-14T05:41:29.760Z,11.47
2018-05-14T05:43:57.248Z,8.17
2018-05-14T05:46:25.763Z,8.93
2018-05-14T05:48:53.252Z,9.90
2018-05-14T05:51:21.556Z,8.10
2018-05-14T05:53:49.816Z,9.00
2018-05-14T05:56:17.296Z,6.93
2018-05-14T05:58:45.548Z,6.03
2018-05-14T06:01:13.138Z,8.60
2018-05-14T06:03:40.539Z,10.40
2018-05-14T06:06:08.036Z,11.53
2018-05-14T06:08:36.276Z,6.83
2018-05-14T06:11:04.120Z,7.70
2018-05-14T06:13:31.642Z,7.60
2018-05-14T06:15:59.893Z,7.63
2018-05-14T06:18:28.897Z,5.13
2018-05-14T06:20:57.141Z,6.00
2018-05-14T06:23:24.884Z,10.03
2018-05-14T06:25:52.404Z,5.63
2018-05-14T06:28:20.664Z,3.93
2018-05-14T06:30:48.239Z,6.40
2018-05-14T06:33:16.513Z,8.80
2018-05-14T06:35:44.051Z,7.30
2018-05-14T06:38:11.777Z,5.67
2018-05-14T06:40:39.264Z,7.00
2018-05-14T06:43:08.280Z,6.50
2018-05-14T06:45:36.540Z,6.27
2018-05-14T06:48:04.024Z,5.23
2018-05-14T06:50:32.292Z,9.83
2018-05-14T06:53:00.819Z,5.63
2018-05-14T06:55:28.304Z,10.33
2018-05-14T06:57:56.861Z,9.27
2018-05-14T07:00:24.366Z,13.30
2018-05-14T07:02:52.896Z,8.13
2018-05-14T07:05:20.407Z,4.80
2018-05-14T07:07:48.655Z,5.40
2018-05-14T07:10:16.396Z,12.40
2018-05-14T07:12:43.872Z,5.10
2018-05-14T07:15:11.576Z,7.67
2018-05-14T07:17:38.908Z,7.27
2018-05-14T07:20:07.144Z,12.23
2018-05-14T07:22:34.616Z,5.90
2018-05-14T07:25:02.112Z,12.40
2018-05-14T07:27:29.672Z,5.77
2018-05-14T07:29:57.915Z,7.07
2018-05-14T07:32:25.399Z,6.87
2018-05-14T07:34:53.639Z,6.00
2018-05-14T07:37:21.131Z,8.00
2018-05-14T07:39:49.376Z,15.60
2018-05-14T07:42:16.868Z,10.80
2018-05-14T07:44:45.392Z,5.40
2018-05-14T07:47:12.879Z,8.77
2018-05-14T07:49:40.367Z,5.10
2018-05-14T07:52:07.961Z,12.20
2018-05-14T07:54:35.483Z,10.93
2018-05-14T07:57:03.739Z,6.67
2018-05-14T07:59:31.464Z,3.93
2018-05-14T08:01:58.971Z,4.67
2018-05-14T08:04:27.255Z,4.33
2018-05-14T08:06:55.519Z,5.97
2018-05-14T08:09:23.238Z,5.03
2018-05-14T08:11:50.850Z,9.10
2018-05-14T08:14:19.016Z,4.37
2018-05-14T08:16:46.491Z,5.30
2018-05-14T08:19:14.751Z,3.87
2018-05-14T08:21:42.254Z,12.13
2018-05-14T08:24:09.743Z,4.70
2018-05-14T08:26:37.224Z,5.60
2018-05-14T08:29:04.704Z,10.93
2018-05-14T08:31:32.199Z,5.63
2018-05-14T08:33:59.700Z,6.67
2018-05-14T08:36:27.192Z,12.10
2018-05-14T08:38:54.672Z,9.50
2018-05-14T08:41:22.170Z,7.40
2018-05-14T08:43:50.703Z,8.77
2018-05-14T08:46:18.215Z,8.97
2018-05-14T08:48:46.472Z,8.80
2018-05-14T08:51:13.951Z,10.57
2018-05-14T08:53:42.215Z,8.37
2018-05-14T08:56:09.788Z,12.30
2018-05-14T08:58:38.032Z,9.17
2018-05-14T09:01:05.532Z,20.23
2018-05-14T09:03:33.009Z,8.77
2018-05-14T09:06:01.600Z,10.10
2018-05-14T09:08:29.368Z,10.80
2018-05-14T09:10:56.875Z,12.60
2018-05-14T09:13:25.404Z,15.23
2018-05-14T09:15:52.889Z,11.50
2018-05-14T09:18:20.380Z,11.87
2018-05-14T09:20:48.628Z,12.43
2018-05-14T09:23:16.212Z,27.63
2018-05-14T09:25:44.459Z,12.00
2018-05-14T09:28:12.763Z,15.73
2018-05-14T09:30:41.039Z,16.30
2018-05-14T09:33:09.315Z,16.50
2018-05-14T09:35:37.592Z,22.83
2018-05-14T09:38:05.840Z,15.10
2018-05-14T09:40:33.359Z,12.70
2018-05-14T09:43:00.882Z,15.60
2018-05-14T09:45:29.308Z,18.53
2018-05-14T09:47:56.787Z,14.63
2018-05-14T09:50:24.291Z,9.30
2018-05-14T09:52:51.785Z,17.37
2018-05-14T09:55:19.263Z,16.33
2018-05-14T09:57:48.268Z,13.70
2018-05-14T10:00:16.037Z,18.93
2018-05-14T10:02:43.375Z,11.17
2018-05-14T10:05:11.107Z,18.53
2018-05-14T10:07:38.611Z,15.10
2018-05-14T10:10:06.095Z,15.53
2018-05-14T10:12:33.639Z,10.03
2018-05-14T10:15:02.164Z,12.73
2018-05-14T10:17:29.932Z,23.27
2018-05-14T10:19:57.420Z,15.60
2018-05-14T10:22:24.903Z,14.80
2018-05-14T10:24:53.524Z,14.60
2018-05-14T10:27:21.004Z,17.40
2018-05-14T10:29:48.600Z,33.40
2018-05-14T10:32:16.875Z,17.77
2018-05-14T10:34:45.120Z,19.00
2018-05-14T10:37:12.632Z,24.33
2018-05-14T10:39:40.415Z,21.37
2018-05-14T10:42:08.631Z,19.07
2018-05-14T10:44:36.113Z,23.60
2018-05-14T10:47:04.732Z,19.43
2018-05-14T10:49:32.248Z,22.30
2018-05-14T10:52:00.627Z,24.53
2018-05-14T10:54:28.896Z,16.73
2018-05-14T10:56:57.144Z,30.60
2018-05-14T10:59:24.633Z,29.87
2018-05-14T11:01:52.907Z,22.27
2018-05-14T11:04:21.160Z,26.63
2018-05-14T11:06:48.655Z,17.50
2018-05-14T11:09:16.909Z,20.07
2018-05-14T11:11:44.411Z,22.27
2018-05-14T11:14:11.932Z,20.70
2018-05-14T11:16:40.608Z,29.23
2018-05-14T11:19:08.115Z,20.87
2018-05-14T11:21:35.598Z,26.70
2018-05-14T11:24:03.107Z,20.87
2018-05-14T11:26:30.585Z,16.77
2018-05-14T11:28:58.067Z,22.03
2018-05-14T11:31:25.563Z,16.60
2018-05-14T11:33:53.812Z,18.17
2018-05-14T11:36:21.416Z,20.37
2018-05-14T11:38:48.900Z,20.57
2018-05-14T11:41:16.664Z,16.50
2018-05-14T11:43:44.146Z,14.60
2018-05-14T11:46:12.260Z,16.37
2018-05-14T11:48:40.615Z,12.43
2018-05-14T11:51:08.116Z,13.83
2018-05-14T11:53:35.600Z,16.07
2018-05-14T11:56:03.348Z,20.73
2018-05-14T11:58:30.827Z,13.47
2018-05-14T12:00:58.323Z,16.43
2018-05-14T12:03:26.596Z,17.97
2018-05-14T12:05:54.855Z,17.33
2018-05-14T12:08:22.431Z,15.67
2018-05-14T12:10:50.689Z,16.77
2018-05-14T12:13:18.168Z,24.07
2018-05-14T12:15:46.436Z,14.43
2018-05-14T12:18:14.683Z,25.93
2018-05-14T12:20:42.180Z,17.20
2018-05-14T12:23:10.431Z,15.23
2018-05-14T12:25:38.039Z,17.73
2018-05-14T12:28:05.508Z,16.73
2018-05-14T12:30:33.024Z,18.47
2018-05-14T12:33:01.548Z,12.17
2018-05-14T12:35:29.312Z,18.43
2018-05-14T12:37:56.811Z,21.23
2018-05-14T12:40:24.387Z,15.47
2018-05-14T12:42:52.660Z,20.07
2018-05-14T12:45:20.908Z,21.23
2018-05-14T12:47:48.391Z,19.40
2018-05-14T12:50:16.656Z,21.97
2018-05-14T12:52:44.232Z,22.03
2018-05-14T12:55:12.754Z,20.37
2018-05-14T12:57:40.235Z,24.00
2018-05-14T13:00:07.742Z,18.97
2018-05-14T13:02:35.233Z,24.33
2018-05-14T13:05:02.720Z,23.07
2018-05-14T13:07:30.216Z,18.47
2018-05-14T13:09:57.700Z,16.97
2018-05-14T13:12:25.199Z,20.77
2018-05-14T13:14:52.679Z,25.77
2018-05-14T13:17:20.928Z,24.23
2018-05-14T13:19:48.428Z,22.43
2018-05-14T13:22:16.208Z,27.40
2018-05-14T13:24:43.748Z,26.07
2018-05-14T13:27:11.287Z,17.67
2018-05-14T13:29:39.811Z,16.60
2018-05-14T13:32:07.313Z,35.53
2018-05-14T13:34:35.029Z,20.33
2018-05-14T13:37:02.528Z,19.27
2018-05-14T13:39:30.013Z,22.60
2018-05-14T13:41:57.513Z,15.97
2018-05-14T13:44:25.059Z,23.30
2018-05-14T13:46:53.284Z,20.63
2018-05-14T13:49:21.568Z,24.30
2018-05-14T13:51:49.824Z,24.27
2018-05-14T13:54:17.328Z,18.23
2018-05-14T13:56:44.864Z,25.37
2018-05-14T13:59:13.131Z,22.60
2018-05-14T14:01:41.416Z,26.73
2018-05-14T14:04:09.667Z,23.10
2018-05-14T14:06:37.165Z,19.40
2018-05-14T14:09:04.653Z,18.87
2018-05-14T14:11:32.257Z,22.27
2018-05-14T14:14:00.424Z,18.53
2018-05-14T14:16:28.348Z,32.53
2018-05-14T14:18:55.837Z,23.97
2018-05-14T14:21:23.319Z,25.30
2018-05-14T14:23:51.728Z,22.73
2018-05-14T14:26:19.872Z,20.60
2018-05-14T14:28:48.135Z,16.80
2018-05-14T14:31:15.619Z,14.40
2018-05-14T14:33:43.125Z,19.00
2018-05-14T14:36:10.649Z,18.00
2018-05-14T14:38:38.896Z,16.83
2018-05-14T14:41:07.160Z,21.03
2018-05-14T14:43:35.446Z,17.70
2018-05-14T14:46:03.728Z,20.57
2018-05-14T14:48:31.976Z,20.63
2018-05-14T14:50:59.479Z,22.67
2018-05-14T14:53:27.049Z,17.33
2018-05-14T14:55:54.520Z,22.80
2018-05-14T14:58:22.099Z,27.10
2018-05-14T15:00:50.863Z,17.83
2018-05-14T15:03:18.476Z,20.13
2018-05-14T15:05:46.724Z,24.60
2018-05-14T15:08:14.233Z,18.13
2018-05-14T15:10:42.021Z,16.97
2018-05-14T15:13:09.536Z,20.67
2018-05-14T15:15:38.059Z,23.20
2018-05-14T15:18:06.334Z,25.70
2018-05-14T15:20:33.833Z,21.37
2018-05-14T15:23:01.409Z,17.70
2018-05-14T15:25:29.680Z,24.57
2018-05-14T15:27:58.211Z,19.30
2018-05-14T15:30:25.716Z,19.77
2018-05-14T15:32:53.510Z,22.27
2018-05-14T15:35:21.297Z,23.30
2018-05-14T15:37:49.059Z,21.93
2018-05-14T15:40:16.558Z,18.23
2018-05-14T15:42:44.831Z,23.83
2018-05-14T15:45:12.316Z,20.27
2018-05-14T15:47:40.584Z,15.43
2018-05-14T15:50:08.866Z,30.00
2018-05-14T15:52:36.428Z,16.53
2018-05-14T15:55:03.931Z,16.60
2018-05-14T15:57:31.539Z,22.90
2018-05-14T15:59:59.816Z,20.77
2018-05-14T16:02:28.064Z,19.07
2018-05-14T16:04:56.445Z,20.43
2018-05-14T16:07:23.934Z,18.50
2018-05-14T16:09:52.208Z,18.40
2018-05-14T16:12:20.722Z,16.57
2018-05-14T16:14:48.896Z,17.90
2018-05-14T16:17:16.400Z,20.67
2018-05-14T16:19:44.652Z,20.40
2018-05-14T16:22:12.150Z,17.47
2018-05-14T16:24:40.669Z,15.73
2018-05-14T16:27:08.168Z,12.00
2018-05-14T16:29:35.652Z,14.50
2018-05-14T16:32:03.155Z,14.20
2018-05-14T16:34:30.640Z,15.30
2018-05-14T16:36:58.204Z,10.20
2018-05-14T16:39:25.791Z,18.93
2018-05-14T16:41:53.337Z,13.20
2018-05-14T16:44:21.036Z,17.07
2018-05-14T16:46:48.551Z,16.47
2018-05-14T16:49:16.935Z,21.80
2018-05-14T16:51:45.188Z,21.90
2018-05-14T16:54:13.016Z,18.40
2018-05-14T16:56:40.539Z,18.23
2018-05-14T16:59:08.807Z,22.60
2018-05-14T17:01:37.260Z,22.20
2018-05-14T17:04:04.835Z,27.17
2018-05-14T17:06:32.256Z,27.93
2018-05-14T17:08:59.743Z,17.00
2018-05-14T17:11:27.316Z,22.20
2018-05-14T17:13:55.631Z,29.87
2018-05-14T17:16:23.071Z,21.10
2018-05-14T17:18:50.856Z,20.93
2018-05-14T17:21:18.375Z,24.67
2018-05-14T17:23:46.684Z,25.93
2018-05-14T17:26:14.172Z,29.60
2018-05-14T17:28:41.672Z,21.20
2018-05-14T17:31:09.988Z,26.23
2018-05-14T17:33:37.492Z,36.07
2018-05-14T17:36:05.775Z,26.13
2018-05-14T17:38:34.299Z,19.93
2018-05-14T17:41:01.803Z,25.33
2018-05-14T17:43:29.411Z,26.60
2018-05-14T17:45:56.932Z,24.17
2018-05-14T17:48:25.456Z,27.37
2018-05-14T17:50:52.962Z,31.10
2018-05-14T17:53:20.452Z,29.23
2018-05-14T17:55:47.975Z,29.10
2018-05-14T17:58:15.520Z,22.03
2018-05-14T18:00:43.012Z,37.33
2018-05-14T18:03:11.275Z,32.53
2018-05-14T18:05:39.579Z,24.97
2018-05-14T18:08:07.111Z,32.77
2018-05-14T18:10:35.423Z,19.27
2018-05-14T18:13:02.860Z,24.30
2018-05-14T18:15:31.184Z,36.37
2018-05-14T18:17:58.964Z,23.70
2018-05-14T18:20:26.308Z,32.60
2018-05-14T18:22:53.792Z,21.37
2018-05-14T18:25:26.864Z,31.67
2018-05-14T18:28:00.145Z,32.30
2018-05-14T18:30:28.431Z,38.03
2018-05-14T18:33:01.685Z,33.00
2018-05-14T18:35:35.054Z,28.43
2018-05-14T18:38:03.341Z,28.13
2018-05-14T18:40:30.954Z,20.97
2018-05-14T18:42:58.540Z,24.90
2018-05-14T18:45:26.789Z,19.90
2018-05-14T18:47:54.295Z,27.27
2018-05-14T18:50:21.869Z,32.90
2018-05-14T18:52:49.377Z,30.47
2018-05-14T18:55:16.863Z,32.53
2018-05-14T18:57:44.356Z,26.83
2018-05-14T19:00:11.868Z,27.67
2018-05-14T19:02:40.136Z,17.47
2018-05-14T19:05:08.404Z,34.33
2018-05-14T19:07:35.892Z,23.20
2018-05-14T19:10:03.397Z,37.87
2018-05-14T19:12:30.927Z,27.37
2018-05-14T19:15:04.185Z,26.93
2018-05-14T19:17:38.549Z,28.70
2018-05-14T19:20:06.056Z,31.90
2018-05-14T19:22:39.942Z,23.93
2018-05-14T19:25:07.531Z,30.97
2018-05-14T19:27:35.800Z,29.70
2018-05-14T19:30:04.075Z,28.83
2018-05-14T19:32:32.340Z,24.20
2018-05-14T19:35:05.688Z,26.20
2018-05-14T19:37:33.188Z,28.43
2018-05-14T19:40:06.540Z,32.17
2018-05-14T19:42:34.304Z,23.87
2018-05-14T19:45:01.820Z,36.03
2018-05-14T19:47:30.095Z,29.37
2018-05-14T19:49:58.344Z,39.73
2018-05-14T19:52:25.855Z,26.60
2018-05-14T19:54:53.349Z,28.43
2018-05-14T19:57:21.092Z,24.90
2018-05-14T19:59:48.615Z,28.43
2018-05-14T20:02:16.870Z,39.20
2018-05-14T20:04:45.148Z,33.73
2018-05-14T20:07:12.628Z,32.90
2018-05-14T20:09:40.174Z,37.93
2018-05-14T20:12:08.435Z,28.03
2018-05-14T20:14:36.848Z,26.87
2018-05-14T20:17:04.391Z,37.40
2018-05-14T20:19:32.912Z,33.03
2018-05-14T20:22:00.432Z,30.10
2018-05-14T20:24:28.684Z,34.03
2018-05-14T20:26:56.188Z,29.27
2018-05-14T20:29:23.721Z,26.07
2018-05-14T20:31:52.100Z,31.40
2018-05-14T20:34:20.620Z,31.27
2018-05-14T20:36:48.100Z,32.97
2018-05-14T20:39:15.599Z,28.00
2018-05-14T20:41:43.850Z,35.20
2018-05-14T20:44:11.352Z,38.17
2018-05-14T20:46:38.883Z,37.57
2018-05-14T20:49:07.164Z,29.67
2018-05-14T20:51:35.684Z,29.17
2018-05-14T20:54:03.447Z,26.53
2018-05-14T20:56:30.951Z,32.97
2018-05-14T20:58:58.520Z,33.70
2018-05-14T21:01:26.901Z,39.03
2018-05-14T21:03:55.164Z,24.47
2018-05-14T21:06:22.675Z,30.00
2018-05-14T21:08:50.157Z,27.97
2018-05-14T21:11:17.634Z,60.87
2018-05-14T21:13:45.455Z,28.90
2018-05-14T21:16:13.220Z,34.53
2018-05-14T21:18:40.740Z,28.80
2018-05-14T21:21:09.256Z,45.47
2018-05-14T21:23:36.991Z,38.43
2018-05-14T21:26:04.483Z,30.27
2018-05-14T21:28:31.965Z,36.03
2018-05-14T21:30:59.463Z,33.80
2018-05-14T21:33:27.977Z,42.10
2018-05-14T21:35:55.472Z,26.10
2018-05-14T21:38:23.052Z,28.17
2018-05-14T21:40:51.319Z,24.73
2018-05-14T21:43:19.848Z,25.13
2018-05-14T21:45:47.612Z,28.13
2018-05-14T21:48:15.108Z,27.03
2018-05-14T21:50:42.592Z,26.73
2018-05-14T21:53:11.080Z,20.23
2018-05-14T21:55:38.628Z,25.70
2018-05-14T21:58:06.895Z,28.63
2018-05-14T22:00:35.295Z,27.47
2018-05-14T22:03:02.795Z,23.87
2018-05-14T22:05:30.280Z,23.03
2018-05-14T22:07:57.780Z,26.63
2018-05-14T22:10:25.420Z,35.30
2018-05-14T22:12:52.971Z,21.80
2018-05-14T22:15:21.361Z,26.50
2018-05-14T22:17:48.864Z,28.37
2018-05-14T22:20:16.360Z,23.70
2018-05-14T22:22:44.992Z,24.93
2018-05-14T22:25:12.757Z,17.63
2018-05-14T22:27:40.240Z,25.27
2018-05-14T22:30:08.455Z,25.63
2018-05-14T22:32:36.831Z,22.20
2018-05-14T22:35:05.092Z,19.33
2018-05-14T22:37:32.629Z,30.60
2018-05-14T22:40:00.094Z,21.57
2018-05-14T22:42:27.579Z,20.13
2018-05-14T22:44:55.840Z,25.77
2018-05-14T22:47:23.408Z,16.23
2018-05-14T22:49:51.667Z,22.97
2018-05-14T22:52:19.168Z,16.87
2018-05-14T22:54:46.667Z,18.23
2018-05-14T22:57:15.013Z,30.13
2018-05-14T22:59:42.685Z,22.83
2018-05-14T23:02:10.171Z,20.03
2018-05-14T23:04:37.755Z,21.20
2018-05-14T23:07:06.020Z,16.83
2018-05-14T23:09:33.504Z,23.40
2018-05-14T23:12:01.004Z,17.93
2018-05-14T23:14:28.488Z,16.97
2018-05-14T23:16:56.751Z,21.17
2018-05-14T23:19:25.351Z,17.87
2018-05-14T23:21:52.795Z,18.30
2018-05-14T23:24:20.316Z,14.70
2018-05-14T23:26:47.799Z,22.53
2018-05-14T23:29:15.300Z,13.90
2018-05-14T23:31:43.671Z,16.37
2018-05-14T23:34:12.192Z,15.70
2018-05-14T23:36:39.691Z,14.80
2018-05-14T23:39:07.172Z,21.17
2018-05-14T23:41:35.432Z,15.27
2018-05-14T23:44:02.924Z,11.77
2018-05-14T23:46:30.428Z,15.40
2018-05-14T23:48:57.915Z,14.63
2018-05-14T23:51:26.435Z,16.63
2018-05-14T23:53:53.960Z,17.20
2018-05-14T23:56:22.204Z,14.90
2018-05-14T23:58:49.709Z,18.97
